TAF KTVC
KTVC 270522Z 2706/2806 VRB03KT P6SM BKN030 OVC060 FM271800 14005KT 4SM -SN BKN025 OVC040 FM280000 00000KT P6SM VCSH OVC030=
METAR KTVC
WC KTVC
WS KTVC
WV KTVC